MDT,Max TemperatureF,Mean TemperatureF,Min TemperatureF,Max Dew PointF,MeanDew PointF,Min DewpointF,Max Humidity, Mean Humidity, Min Humidity, Max Sea Level PressureIn, Mean Sea Level PressureIn, Min Sea Level PressureIn, Max VisibilityMiles, Mean VisibilityMiles, Min VisibilityMiles, Max Wind SpeedMPH, Mean Wind SpeedMPH, Max Gust SpeedMPH,PrecipitationIn, CloudCover, Events, WindDirDegrees
2011-10-1,75,63,50,41,35,31,64,45,26,30.00,29.88,29.81,10,10,10,23,8,30,0.01,2,Rain,9
2011-10-2,77,61,44,46,42,37,86,57,27,29.98,29.93,29.89,10,10,10,14,7,20,T,0,,67
2011-10-3,88,64,40,43,38,31,89,51,13,29.99,29.85,29.67,10,10,10,25,9,31,0.00,0,,171
2011-10-4,80,65,49,48,42,35,83,55,26,29.71,29.61,29.49,10,10,4,29,13,35,0.17,3,Rain,199
2011-10-5,60,55,49,54,50,47,100,85,69,29.62,29.52,29.45,10,8,2,13,4,15,0.60,7,Rain,16
2011-10-6,50,47,44,49,44,41,100,91,82,29.73,29.60,29.47,10,9,4,24,15,30,0.24,8,Rain,318
2011-10-7,47,45,42,46,43,40,96,90,83,30.10,29.79,29.64,10,7,2,23,11,30,0.81,8,Rain,284
2011-10-8,54,48,42,42,39,36,100,77,54,30.32,30.22,30.05,10,10,9,14,6,16,0.03,5,Rain,218
2011-10-9,63,51,38,36,33,29,79,53,27,30.16,29.99,29.88,10,10,10,22,11,26,0.00,0,,211
2011-10-10,63,50,37,39,35,32,79,56,32,29.90,29.74,29.58,10,10,10,28,9,33,0.00,3,,204
2011-10-11,62,54,46,39,36,33,66,51,36,29.87,29.67,29.58,10,10,10,26,18,35,0.00,1,,222
2011-10-12,58,50,42,33,31,27,67,50,32,30.05,30.00,29.89,10,10,10,31,17,39,0.00,0,,229
2011-10-13,58,46,34,28,24,17,64,43,22,30.13,30.07,30.03,10,10,10,21,11,26,0.00,1,,275
2011-10-14,49,41,32,37,32,25,92,69,45,30.17,30.09,29.93,10,10,10,14,3,16,T,5,Rain,73
2011-10-15,51,42,32,38,35,30,100,75,50,30.20,30.03,29.91,10,9,5,15,5,16,0.29,5,Rain,266
2011-10-16,47,37,27,38,33,26,100,86,71,30.21,30.13,30.00,10,10,6,10,4,12,T,2,,249
2011-10-17,57,45,32,32,29,23,100,64,27,30.40,30.31,30.17,10,10,10,21,11,25,0.00,1,,219
2011-10-18,60,47,33,32,29,27,82,55,27,30.48,30.34,30.17,10,10,10,15,9,18,0.00,0,,202
2011-10-19,66,52,37,33,29,26,64,44,24,30.12,29.93,29.82,10,10,10,22,12,28,0.00,0,,205
2011-10-20,62,52,42,37,36,33,71,54,36,30.03,29.95,29.86,10,10,10,22,12,26,0.00,1,,228
2011-10-21,60,51,41,39,37,36,82,61,40,30.14,30.09,30.01,10,10,10,23,10,28,0.00,1,,234
2011-10-22,62,54,46,37,36,33,65,51,36,30.11,30.01,29.91,10,10,10,35,19,44,0.00,1,,226
2011-10-23,63,52,40,40,32,20,71,45,19,30.05,29.98,29.93,10,10,10,33,12,41,0.00,0,,242
2011-10-24,51,41,30,40,34,24,83,71,58,30.19,29.99,29.90,10,10,6,24,9,31,0.06,6,Rain,269
2011-10-25,44,35,26,28,26,23,92,71,49,30.45,30.33,30.19,10,9,1,22,6,28,0.03,5,Snow,256
2011-10-26,47,36,24,27,20,12,88,55,27,30.43,30.21,30.02,10,10,10,29,15,36,0.00,1,,217
2011-10-27,50,38,26,23,17,14,69,53,37,30.26,30.12,29.96,10,10,10,23,12,30,0.00,2,,245
2011-10-28,54,40,25,20,16,11,75,47,18,30.28,30.08,29.71,10,10,10,28,15,40,0.00,1,,209
2011-10-29,54,43,32,31,23,11,64,42,19,30.16,29.96,29.73,10,10,10,35,19,43,0.00,1,,250
2011-10-30,63,47,31,37,29,22,69,49,29,30.16,30.02,29.83,10,10,10,39,19,49,0.00,0,,222
2011-10-31,55,43,30,38,28,17,61,43,24,30.13,29.91,29.76,10,10,10,37,19,46,T,2,,244